createdAt,value
2022-11-10T00:00:42.558Z,11.70
2022-11-10T00:03:29.335Z,11.68
2022-11-10T00:06:15.393Z,11.68
2022-11-10T00:09:01.982Z,11.64
2022-11-10T00:11:48.851Z,11.64
2022-11-10T00:14:54.128Z,11.64
2022-11-10T00:17:40.725Z,11.65
2022-11-10T00:20:27.157Z,11.63
2022-11-10T00:23:13.419Z,11.63
2022-11-10T00:26:00.150Z,11.66
2022-11-10T00:28:47.221Z,11.72
2022-11-10T00:31:33.896Z,11.78
2022-11-10T00:34:20.898Z,11.82
2022-11-10T00:37:07.498Z,11.85
2022-11-10T00:39:54.435Z,11.87
2022-11-10T00:42:41.012Z,11.91
2022-11-10T00:45:27.678Z,11.94
2022-11-10T00:48:13.744Z,11.97
2022-11-10T00:51:00.644Z,11.97
2022-11-10T00:53:46.961Z,11.99
2022-11-10T00:56:34.333Z,12.02
2022-11-10T00:59:20.802Z,12.03
2022-11-10T01:02:07.759Z,12.04
2022-11-10T01:04:54.428Z,12.11
2022-11-10T01:07:40.860Z,12.15
2022-11-10T01:10:27.272Z,12.17
2022-11-10T01:13:13.890Z,12.19
2022-11-10T01:16:05.065Z,12.21
2022-11-10T01:18:52.615Z,12.25
2022-11-10T01:21:39.046Z,12.29
2022-11-10T01:24:25.360Z,12.32
2022-11-10T01:27:12.635Z,12.33
2022-11-10T01:29:59.127Z,12.36
2022-11-10T01:32:45.499Z,12.37
2022-11-10T01:35:33.691Z,12.38
2022-11-10T01:38:21.182Z,12.40
2022-11-10T01:41:09.584Z,12.44
2022-11-10T01:44:11.738Z,12.50
2022-11-10T01:46:58.156Z,12.53
2022-11-10T01:49:44.745Z,12.56
2022-11-10T01:52:33.809Z,12.57
2022-11-10T01:55:20.452Z,12.59
2022-11-10T01:58:07.724Z,12.61
2022-11-10T02:00:54.777Z,12.60
2022-11-10T02:03:49.554Z,12.62
2022-11-10T02:06:39.842Z,12.65
2022-11-10T02:09:26.132Z,12.66
2022-11-10T02:12:13.147Z,12.66
2022-11-10T02:14:59.823Z,12.70
2022-11-10T02:17:48.012Z,12.73
2022-11-10T02:20:34.890Z,12.75
2022-11-10T02:23:30.523Z,12.77
2022-11-10T02:26:19.365Z,12.79
2022-11-10T02:29:06.030Z,12.82
2022-11-10T02:31:53.344Z,12.84
2022-11-10T02:34:40.371Z,12.79
2022-11-10T02:37:27.023Z,12.78
2022-11-10T02:40:13.346Z,12.77
2022-11-10T02:42:59.593Z,12.76
2022-11-10T02:45:46.523Z,12.76
2022-11-10T02:48:32.715Z,12.79
2022-11-10T02:51:19.064Z,12.81
2022-11-10T02:54:06.342Z,12.82
2022-11-10T02:56:53.228Z,12.82
2022-11-10T02:59:40.113Z,12.83
2022-11-10T03:02:31.192Z,12.84
2022-11-10T03:05:18.789Z,12.84
2022-11-10T03:08:05.907Z,12.84
2022-11-10T03:10:56.662Z,12.83
2022-11-10T03:14:00.318Z,12.84
2022-11-10T03:16:48.493Z,12.90
2022-11-10T03:19:35.380Z,12.90
2022-11-10T03:22:21.735Z,12.92
2022-11-10T03:25:08.644Z,12.95
2022-11-10T03:27:55.375Z,12.96
2022-11-10T03:30:42.814Z,12.98
2022-11-10T03:33:29.383Z,12.99
2022-11-10T03:36:16.326Z,13.01
2022-11-10T03:39:03.436Z,13.04
2022-11-10T03:41:49.863Z,13.06
2022-11-10T03:44:36.116Z,13.07
2022-11-10T03:47:22.918Z,13.08
2022-11-10T03:50:09.372Z,13.08
2022-11-10T03:52:55.951Z,13.10
2022-11-10T03:55:42.184Z,13.10
2022-11-10T03:58:28.554Z,13.11
2022-11-10T04:01:15.292Z,13.10
2022-11-10T04:04:02.008Z,13.10
2022-11-10T04:07:07.342Z,13.10
2022-11-10T04:09:54.094Z,13.11
2022-11-10T04:12:59.326Z,13.11
2022-11-10T04:15:45.925Z,13.10
2022-11-10T04:18:32.267Z,13.11
2022-11-10T04:21:18.666Z,13.13
2022-11-10T04:24:06.066Z,13.14
2022-11-10T04:26:52.602Z,13.14
2022-11-10T04:29:39.209Z,13.14
2022-11-10T04:32:25.656Z,13.14
2022-11-10T04:35:12.401Z,13.15
2022-11-10T04:37:58.674Z,13.17
2022-11-10T04:40:45.338Z,13.19
2022-11-10T04:43:32.591Z,13.21
2022-11-10T04:46:30.924Z,13.23
2022-11-10T04:49:18.521Z,13.24
2022-11-10T04:52:05.310Z,13.26
2022-11-10T04:54:52.685Z,13.27
2022-11-10T04:57:39.455Z,13.30
2022-11-10T05:00:25.998Z,13.33
2022-11-10T05:03:13.054Z,13.36
2022-11-10T05:05:59.172Z,13.37
2022-11-10T05:08:45.377Z,13.38
2022-11-10T05:11:32.622Z,13.38
2022-11-10T05:14:19.403Z,13.39
2022-11-10T05:17:06.431Z,13.39
2022-11-10T05:19:52.865Z,13.40
2022-11-10T05:22:39.137Z,13.41
2022-11-10T05:25:26.097Z,13.39
2022-11-10T05:28:12.813Z,13.48
2022-11-10T05:30:59.403Z,13.94
2022-11-10T05:33:46.040Z,14.04
2022-11-10T05:36:32.811Z,13.99
2022-11-10T05:39:18.861Z,13.90
2022-11-10T05:42:05.965Z,13.83
2022-11-10T05:44:52.631Z,13.79
2022-11-10T05:47:39.512Z,13.72
2022-11-10T05:50:26.395Z,13.68
2022-11-10T05:53:13.262Z,13.67
2022-11-10T05:56:00.113Z,13.67
2022-11-10T05:58:46.663Z,13.70
2022-11-10T06:01:33.304Z,13.73
2022-11-10T06:04:19.905Z,13.75
2022-11-10T06:07:08.189Z,13.76
2022-11-10T06:09:54.936Z,13.80
2022-11-10T06:12:41.550Z,13.82
2022-11-10T06:15:28.089Z,13.82
2022-11-10T06:18:15.013Z,13.83
2022-11-10T06:21:01.465Z,13.84
2022-11-10T06:23:47.603Z,13.86
2022-11-10T06:26:34.424Z,13.88
2022-11-10T06:29:26.472Z,13.91
2022-11-10T06:32:13.182Z,13.93
2022-11-10T06:35:00.791Z,13.97
2022-11-10T06:37:56.628Z,14.00
2022-11-10T06:40:43.330Z,14.05
2022-11-10T06:43:30.031Z,14.09
2022-11-10T06:46:16.713Z,14.12
2022-11-10T06:49:05.293Z,14.16
2022-11-10T06:51:52.542Z,14.18
2022-11-10T06:54:39.098Z,14.19
2022-11-10T06:57:25.870Z,14.24
2022-11-10T07:00:12.462Z,14.26
2022-11-10T07:03:06.146Z,14.30
2022-11-10T07:05:52.903Z,14.34
2022-11-10T07:08:39.226Z,14.35
2022-11-10T07:11:25.500Z,14.36
2022-11-10T07:14:11.963Z,14.39
2022-11-10T07:16:58.923Z,14.42
2022-11-10T07:19:45.714Z,14.42
2022-11-10T07:22:32.014Z,14.46
2022-11-10T07:25:18.403Z,14.46
2022-11-10T07:28:06.202Z,14.53
2022-11-10T07:30:52.941Z,14.61
2022-11-10T07:33:39.489Z,14.67
2022-11-10T07:36:29.194Z,14.72
2022-11-10T07:39:15.931Z,14.75
2022-11-10T07:42:02.362Z,14.76
2022-11-10T07:44:48.977Z,14.76
2022-11-10T07:47:36.130Z,14.73
2022-11-10T07:50:23.119Z,14.74
2022-11-10T07:53:10.683Z,14.74
2022-11-10T07:55:58.289Z,14.75
2022-11-10T07:58:45.033Z,14.74
2022-11-10T08:01:31.686Z,14.76
2022-11-10T08:04:18.618Z,14.78
2022-11-10T08:07:05.292Z,14.80
2022-11-10T08:09:51.978Z,14.80
2022-11-10T08:12:38.083Z,14.78
2022-11-10T08:15:25.231Z,14.72
2022-11-10T08:18:14.448Z,14.73
2022-11-10T08:21:02.194Z,14.75
2022-11-10T08:23:48.827Z,14.72
2022-11-10T08:26:35.677Z,14.68
2022-11-10T08:29:22.175Z,14.68
2022-11-10T08:32:08.411Z,14.63
2022-11-10T08:34:55.140Z,14.59
2022-11-10T08:37:41.733Z,14.59
2022-11-10T08:40:28.337Z,14.53
2022-11-10T08:43:15.388Z,14.47
2022-11-10T08:46:04.765Z,14.47
2022-11-10T08:48:51.583Z,14.45
2022-11-10T08:51:39.397Z,14.45
2022-11-10T08:54:26.007Z,14.43
2022-11-10T08:57:12.532Z,14.41
2022-11-10T08:59:59.563Z,14.38
2022-11-10T09:02:46.519Z,14.40
2022-11-10T09:05:33.062Z,14.44
2022-11-10T09:08:19.449Z,14.41
2022-11-10T09:11:06.085Z,14.42
2022-11-10T09:13:52.826Z,14.36
2022-11-10T09:16:39.289Z,14.37
2022-11-10T09:19:26.272Z,14.41
2022-11-10T09:22:12.709Z,14.45
2022-11-10T09:24:59.575Z,14.50
2022-11-10T09:27:46.125Z,14.53
2022-11-10T09:30:32.787Z,14.50
2022-11-10T09:33:19.297Z,14.43
2022-11-10T09:36:07.154Z,14.54
2022-11-10T09:38:53.392Z,14.56
2022-11-10T09:41:41.287Z,14.64
2022-11-10T09:44:31.334Z,14.77
2022-11-10T09:47:50.391Z,14.90
2022-11-10T09:50:38.082Z,14.92
2022-11-10T09:53:34.960Z,14.93
2022-11-10T09:56:42.029Z,14.85
2022-11-10T09:59:30.468Z,14.74
2022-11-10T10:02:23.996Z,14.68
2022-11-10T10:05:29.454Z,14.67
2022-11-10T10:08:45.097Z,14.61
2022-11-10T10:11:47.987Z,14.54
2022-11-10T10:14:51.126Z,14.45
2022-11-10T10:17:57.926Z,14.38
2022-11-10T10:21:04.948Z,14.33
2022-11-10T10:24:11.414Z,14.29
2022-11-10T10:27:01.248Z,14.33
2022-11-10T10:29:49.311Z,14.37
2022-11-10T10:32:35.704Z,14.28
2022-11-10T10:35:22.668Z,14.31
2022-11-10T10:38:32.089Z,14.38
2022-11-10T10:41:24.714Z,14.42
2022-11-10T10:44:16.415Z,14.41
2022-11-10T10:47:04.903Z,14.35
2022-11-10T10:49:51.559Z,14.31
2022-11-10T10:52:38.772Z,14.32
2022-11-10T10:55:28.089Z,14.34
2022-11-10T10:58:22.322Z,14.36
2022-11-10T11:01:15.087Z,14.30
2022-11-10T11:04:05.278Z,14.29
2022-11-10T11:06:59.395Z,14.29
2022-11-10T11:09:46.188Z,14.31
2022-11-10T11:12:33.067Z,14.29
2022-11-10T11:15:20.722Z,14.27
2022-11-10T11:18:14.309Z,14.19
2022-11-10T11:21:19.958Z,14.16
2022-11-10T11:24:09.412Z,14.13
2022-11-10T11:27:13.975Z,14.16
2022-11-10T11:30:00.816Z,14.22
2022-11-10T11:33:05.929Z,14.26
2022-11-10T11:35:58.577Z,14.27
2022-11-10T11:38:53.430Z,14.32
2022-11-10T11:41:50.909Z,14.33
2022-11-10T11:44:45.947Z,14.37
2022-11-10T11:47:37.489Z,14.44
2022-11-10T11:50:29.277Z,14.43
2022-11-10T11:53:16.206Z,14.47
2022-11-10T11:56:06.251Z,14.52
2022-11-10T11:59:00.416Z,14.54
2022-11-10T12:01:50.179Z,14.58
2022-11-10T12:04:46.510Z,14.55
2022-11-10T12:07:36.643Z,14.55
2022-11-10T12:10:27.633Z,14.55
2022-11-10T12:13:23.585Z,14.55
2022-11-10T12:16:19.136Z,14.53
2022-11-10T12:19:14.086Z,14.59
2022-11-10T12:22:03.532Z,14.63
2022-11-10T12:24:49.588Z,14.59
2022-11-10T12:27:38.154Z,14.57
2022-11-10T12:30:24.372Z,14.57
2022-11-10T12:33:17.431Z,14.62
2022-11-10T12:36:06.375Z,14.67
2022-11-10T12:38:59.859Z,14.65
2022-11-10T12:41:49.804Z,14.63
2022-11-10T12:44:43.755Z,14.62
2022-11-10T12:47:42.461Z,14.56
2022-11-10T12:50:41.461Z,14.52
2022-11-10T12:53:30.092Z,14.52
2022-11-10T12:56:22.760Z,14.49
2022-11-10T12:59:21.866Z,14.45
2022-11-10T13:02:17.904Z,14.40
2022-11-10T13:05:14.144Z,14.31
2022-11-10T13:08:25.216Z,14.27
2022-11-10T13:11:12.381Z,14.28
2022-11-10T13:14:00.658Z,14.27
2022-11-10T13:16:50.102Z,14.26
2022-11-10T13:19:39.274Z,14.26
2022-11-10T13:22:44.576Z,14.27
2022-11-10T13:25:37.749Z,14.24
2022-11-10T13:28:43.645Z,14.24
2022-11-10T13:31:31.154Z,14.27
2022-11-10T13:34:34.365Z,14.27
2022-11-10T13:37:30.207Z,14.28
2022-11-10T13:40:27.232Z,14.29
2022-11-10T13:43:14.356Z,14.35
2022-11-10T13:46:02.879Z,14.34
2022-11-10T13:48:49.760Z,14.32
2022-11-10T13:51:36.658Z,14.33
2022-11-10T13:54:49.923Z,14.34
2022-11-10T13:57:37.934Z,14.35
2022-11-10T14:00:48.591Z,14.35
2022-11-10T14:03:51.733Z,14.35
2022-11-10T14:06:43.599Z,14.35
2022-11-10T14:09:36.212Z,14.36
2022-11-10T14:12:22.807Z,14.41
2022-11-10T14:15:30.468Z,14.47
2022-11-10T14:18:36.325Z,14.50
2022-11-10T14:21:30.668Z,14.52
2022-11-10T14:24:20.336Z,14.53
2022-11-10T14:27:21.737Z,14.53
2022-11-10T14:30:09.401Z,14.54
2022-11-10T14:33:04.228Z,14.55
2022-11-10T14:35:52.660Z,14.53
2022-11-10T14:38:44.008Z,14.45
2022-11-10T14:41:30.706Z,14.34
2022-11-10T14:44:22.483Z,14.21
2022-11-10T14:47:22.759Z,14.16
2022-11-10T14:50:19.347Z,14.14
2022-11-10T14:53:24.627Z,14.10
2022-11-10T14:56:16.340Z,14.07
2022-11-10T14:59:07.967Z,14.07
2022-11-10T15:01:59.731Z,14.06
2022-11-10T15:04:52.324Z,14.05
2022-11-10T15:07:39.041Z,14.01
2022-11-10T15:10:49.637Z,14.03
2022-11-10T15:16:38.708Z,13.95
2022-11-10T15:19:35.532Z,13.95
2022-11-10T15:22:22.191Z,13.94
2022-11-10T15:25:13.123Z,13.88
2022-11-10T15:28:02.751Z,13.87
2022-11-10T15:30:56.857Z,13.90
2022-11-10T15:33:48.124Z,13.93
2022-11-10T15:36:36.560Z,13.95
2022-11-10T15:39:25.392Z,13.91
2022-11-10T15:42:14.383Z,13.89
2022-11-10T15:45:00.735Z,13.91
2022-11-10T15:47:47.587Z,13.85
2022-11-10T15:50:34.369Z,13.82
2022-11-10T15:53:26.937Z,13.76
2022-11-10T15:56:14.947Z,13.74
2022-11-10T15:59:02.614Z,13.76
2022-11-10T16:01:50.101Z,13.77
2022-11-10T16:04:36.766Z,13.73
2022-11-10T16:07:23.898Z,13.76
2022-11-10T16:10:10.268Z,13.76
2022-11-10T16:12:56.804Z,13.75
2022-11-10T16:15:43.859Z,13.76
2022-11-10T16:18:31.070Z,13.74
2022-11-10T16:21:19.500Z,13.72
2022-11-10T16:24:05.896Z,13.73
2022-11-10T16:26:52.819Z,13.73
2022-11-10T16:29:39.185Z,13.76
2022-11-10T16:32:25.903Z,13.76
2022-11-10T16:35:15.307Z,13.71
2022-11-10T16:38:01.906Z,13.68
2022-11-10T16:40:50.828Z,13.67
2022-11-10T16:43:37.444Z,13.66
2022-11-10T16:46:25.779Z,13.66
2022-11-10T16:49:24.795Z,13.65
2022-11-10T16:52:15.571Z,13.69
2022-11-10T16:55:02.348Z,13.70
2022-11-10T16:57:48.902Z,13.74
2022-11-10T17:00:35.959Z,13.78
2022-11-10T17:03:33.810Z,13.78
2022-11-10T17:06:21.566Z,13.80
2022-11-10T17:09:09.753Z,13.84
2022-11-10T17:11:56.661Z,13.86
2022-11-10T17:14:43.333Z,13.86
2022-11-10T17:17:30.145Z,13.89
2022-11-10T17:20:22.637Z,13.89
2022-11-10T17:23:16.772Z,13.86
2022-11-10T17:26:03.227Z,13.86
2022-11-10T17:28:49.850Z,13.86
2022-11-10T17:31:37.926Z,13.87
2022-11-10T17:34:25.222Z,13.88
2022-11-10T17:37:12.419Z,13.88
2022-11-10T17:39:59.532Z,13.88
2022-11-10T17:42:47.264Z,13.89
2022-11-10T17:45:34.235Z,13.91
2022-11-10T17:48:21.901Z,13.90
2022-11-10T17:51:19.726Z,13.91
2022-11-10T17:54:14.042Z,13.92
2022-11-10T17:57:00.438Z,13.92
2022-11-10T17:59:54.161Z,13.91
2022-11-10T18:02:41.039Z,13.93
2022-11-10T18:05:28.904Z,13.91
2022-11-10T18:08:16.611Z,13.87
2022-11-10T18:11:03.099Z,13.86
2022-11-10T18:13:49.545Z,13.85
2022-11-10T18:16:39.893Z,13.83
2022-11-10T18:19:27.479Z,13.82
2022-11-10T18:22:13.928Z,13.82
2022-11-10T18:25:02.330Z,13.82
2022-11-10T18:27:48.746Z,13.77
2022-11-10T18:30:35.636Z,13.77
2022-11-10T18:33:22.790Z,13.77
2022-11-10T18:36:10.067Z,13.78
2022-11-10T18:38:57.613Z,13.81
2022-11-10T18:41:49.894Z,13.84
2022-11-10T18:44:37.525Z,13.81
2022-11-10T18:47:24.576Z,13.94
2022-11-10T18:50:11.499Z,13.99
2022-11-10T18:52:58.735Z,13.95
2022-11-10T18:55:53.389Z,13.96
2022-11-10T18:58:40.249Z,13.98
2022-11-10T19:01:27.455Z,13.96
2022-11-10T19:04:14.905Z,13.96
2022-11-10T19:07:01.815Z,13.95
2022-11-10T19:09:48.546Z,13.93
2022-11-10T19:12:34.861Z,13.94
2022-11-10T19:15:24.331Z,13.95
2022-11-10T19:18:10.978Z,13.93
2022-11-10T19:20:58.089Z,13.93
2022-11-10T19:23:46.517Z,13.90
2022-11-10T19:26:33.508Z,13.91
2022-11-10T19:29:20.143Z,13.92
2022-11-10T19:32:07.690Z,13.90
2022-11-10T19:34:54.216Z,13.86
2022-11-10T19:37:40.763Z,13.82
2022-11-10T19:40:27.062Z,13.81
2022-11-10T19:43:13.902Z,13.85
2022-11-10T19:46:04.916Z,13.88
2022-11-10T19:48:52.186Z,13.91
2022-11-10T19:51:38.952Z,13.93
2022-11-10T19:54:26.093Z,13.89
2022-11-10T19:57:12.314Z,13.90
2022-11-10T19:59:58.878Z,13.91
2022-11-10T20:02:45.979Z,13.92
2022-11-10T20:05:32.997Z,13.90
2022-11-10T20:08:20.652Z,13.91
2022-11-10T20:11:07.508Z,13.92
2022-11-10T20:13:57.170Z,13.90
2022-11-10T20:16:43.644Z,13.87
2022-11-10T20:19:30.474Z,13.87
2022-11-10T20:22:16.833Z,13.86
2022-11-10T20:25:03.788Z,13.81
2022-11-10T20:27:50.156Z,13.79
2022-11-10T20:30:38.244Z,13.76
2022-11-10T20:33:25.106Z,13.79
2022-11-10T20:36:20.345Z,13.79
2022-11-10T20:39:07.478Z,13.74
2022-11-10T20:41:57.107Z,13.72
2022-11-10T20:44:43.259Z,13.72
2022-11-10T20:47:29.623Z,13.71
2022-11-10T20:50:20.364Z,13.64
2022-11-10T20:53:09.981Z,13.63
2022-11-10T20:55:58.077Z,13.64
2022-11-10T20:58:45.398Z,13.57
2022-11-10T21:01:35.686Z,13.54
2022-11-10T21:04:22.209Z,13.50
2022-11-10T21:07:08.627Z,13.51
2022-11-10T21:09:55.303Z,13.48
2022-11-10T21:12:51.034Z,13.44
2022-11-10T21:15:39.207Z,13.45
2022-11-10T21:18:30.501Z,13.47
2022-11-10T21:21:21.176Z,13.45
2022-11-10T21:24:08.337Z,13.46
2022-11-10T21:26:56.373Z,13.45
2022-11-10T21:29:43.258Z,13.45
2022-11-10T21:32:30.210Z,13.44
2022-11-10T21:35:16.934Z,13.43
2022-11-10T21:38:04.619Z,13.44
2022-11-10T21:40:51.278Z,13.49
2022-11-10T21:43:39.003Z,13.54
2022-11-10T21:46:25.534Z,13.56
2022-11-10T21:49:12.221Z,13.61
2022-11-10T21:51:58.895Z,13.66
2022-11-10T21:54:45.416Z,13.70
2022-11-10T21:57:32.238Z,13.72
2022-11-10T22:00:19.117Z,13.77
2022-11-10T22:03:05.831Z,13.75
2022-11-10T22:05:52.604Z,13.78
2022-11-10T22:08:39.773Z,13.77
2022-11-10T22:11:44.832Z,13.78
2022-11-10T22:14:50.205Z,13.73
2022-11-10T22:17:55.809Z,13.61
2022-11-10T22:20:42.523Z,13.53
2022-11-10T22:23:48.267Z,13.46
2022-11-10T22:26:34.914Z,13.44
2022-11-10T22:29:23.545Z,13.46
2022-11-10T22:32:12.352Z,13.48
2022-11-10T22:34:58.836Z,13.44
2022-11-10T22:37:45.467Z,13.43
2022-11-10T22:40:50.689Z,13.45
2022-11-10T22:43:55.685Z,13.47
2022-11-10T22:46:43.364Z,13.46
2022-11-10T22:49:29.745Z,13.48
2022-11-10T22:52:16.194Z,13.48
2022-11-10T22:55:02.688Z,13.43
2022-11-10T22:57:51.504Z,13.42
2022-11-10T23:00:38.257Z,13.42
2022-11-10T23:03:25.279Z,13.39
2022-11-10T23:06:12.357Z,13.33
2022-11-10T23:08:59.647Z,13.29
2022-11-10T23:11:46.276Z,13.26
2022-11-10T23:14:32.703Z,13.25
2022-11-10T23:17:18.962Z,13.21
2022-11-10T23:20:05.977Z,13.16
2022-11-10T23:22:54.735Z,13.12
2022-11-10T23:25:41.307Z,13.08
2022-11-10T23:28:28.857Z,13.07
2022-11-10T23:31:17.327Z,13.02
2022-11-10T23:34:03.541Z,13.01
2022-11-10T23:36:50.564Z,13.02
2022-11-10T23:39:37.133Z,13.00
2022-11-10T23:42:23.991Z,12.90
2022-11-10T23:45:10.305Z,12.83
2022-11-10T23:47:57.155Z,12.76
2022-11-10T23:50:43.999Z,12.74
2022-11-10T23:53:30.352Z,12.71
2022-11-10T23:56:16.968Z,12.70
2022-11-10T23:59:03.569Z,12.73
